Time;durP1;ratioP1;P1;durP2;ratioP2;P2;SDS_P1;SDS_P2;PMS_P1;PMS_P2;Temp;Humidity;BMP_temperature;BMP_pressure;BME280_temperature;BME280_humidity;BME280_pressure;Samples;Min_cycle;Max_cycle;Signal;HPM_P1;HPM_P2
2022/03/15 00:02:22;;;;;;;344.73;140.38;;;1.10;99.90;;;;;;5076991;28;20051;-53
2022/03/15 00:04:48;;;;;;;333.95;136.93;;;1.20;99.90;;;;;;5076849;28;20025;-52
2022/03/15 00:07:15;;;;;;;337.42;137.93;;;1.10;99.90;;;;;;5076821;28;20067;-52
2022/03/15 00:09:45;;;;;;;333.63;136.40;;;1.10;99.90;;;;;;5076727;28;20166;-52
2022/03/15 00:12:11;;;;;;;320.05;128.45;;;1.00;99.90;;;;;;5076681;28;20028;-52
2022/03/15 00:14:37;;;;;;;327.08;132.85;;;1.00;99.90;;;;;;5076735;28;20031;-52
2022/03/15 00:17:07;;;;;;;313.40;127.55;;;0.90;99.90;;;;;;5076572;28;20039;-52
2022/03/15 00:19:33;;;;;;;302.20;123.85;;;0.90;99.90;;;;;;5076542;28;20021;-52
2022/03/15 00:21:59;;;;;;;301.90;123.55;;;0.80;99.90;;;;;;5076502;28;20032;-52
2022/03/15 00:24:25;;;;;;;299.38;122.10;;;0.80;99.90;;;;;;5076369;28;20040;-52
2022/03/15 00:26:54;;;;;;;298.90;122.75;;;0.70;99.90;;;;;;5076780;28;20036;-52
2022/03/15 00:29:22;;;;;;;320.27;128.50;;;0.60;99.90;;;;;;5058479;28;20047;-52
2022/03/15 00:31:49;;;;;;;305.73;124.53;;;0.60;99.90;;;;;;5058059;28;20445;-52
2022/03/15 00:34:15;;;;;;;262.83;110.75;;;0.50;99.90;;;;;;5076536;28;20020;-52
2022/03/15 00:36:41;;;;;;;281.48;115.43;;;0.40;99.90;;;;;;5076479;28;20032;-52
2022/03/15 00:39:08;;;;;;;282.83;116.60;;;0.40;99.90;;;;;;5076259;28;20033;-52
2022/03/15 00:41:35;;;;;;;270.92;110.57;;;0.30;99.90;;;;;;5092116;28;20108;-52
2022/03/15 00:44:01;;;;;;;278.65;112.32;;;0.30;99.90;;;;;;5075962;28;20656;-52
2022/03/15 00:46:27;;;;;;;291.08;114.40;;;0.20;99.90;;;;;;5076164;28;20103;-53
2022/03/15 00:48:54;;;;;;;262.10;108.53;;;0.20;99.90;;;;;;5057194;28;20054;-52
2022/03/15 00:51:20;;;;;;;307.25;124.32;;;0.20;99.90;;;;;;5075974;28;20458;-52
2022/03/15 00:53:46;;;;;;;300.88;122.93;;;0.30;99.90;;;;;;5075963;28;20100;-52
2022/03/15 00:56:12;;;;;;;289.92;120.18;;;0.30;99.90;;;;;;5057786;28;20028;-52
2022/03/15 00:58:38;;;;;;;322.58;131.05;;;0.30;99.90;;;;;;5057845;28;20054;-52
2022/03/15 01:01:08;;;;;;;335.17;137.43;;;0.40;99.90;;;;;;5075567;28;20223;-52
2022/03/15 01:03:34;;;;;;;347.75;137.73;;;0.40;99.90;;;;;;5075598;28;20508;-52
2022/03/15 01:06:00;;;;;;;337.35;136.23;;;0.50;99.90;;;;;;5075433;28;20050;-52
2022/03/15 01:08:26;;;;;;;318.90;128.73;;;0.50;99.90;;;;;;5075544;28;20036;-52
2022/03/15 01:10:52;;;;;;;306.90;125.50;;;0.60;99.90;;;;;;5057657;28;20028;-52
2022/03/15 01:13:18;;;;;;;320.13;124.38;;;0.60;99.90;;;;;;5057468;28;20478;-52
2022/03/15 01:15:45;;;;;;;304.15;121.57;;;0.60;99.90;;;;;;5078477;28;20016;-52
2022/03/15 01:18:12;;;;;;;287.60;113.13;;;0.60;99.90;;;;;;5077567;28;20024;-52
2022/03/15 01:20:40;;;;;;;292.90;116.10;;;0.60;99.90;;;;;;5095719;28;20020;-52
2022/03/15 01:23:06;;;;;;;262.95;104.15;;;0.50;99.90;;;;;;5095553;28;20028;-52
2022/03/15 01:25:33;;;;;;;253.35;104.97;;;0.40;99.90;;;;;;5077394;28;20032;-52
2022/03/15 01:27:59;;;;;;;239.68;98.20;;;0.30;99.90;;;;;;5077549;28;20106;-52
2022/03/15 01:30:30;;;;;;;248.60;101.50;;;0.20;99.90;;;;;;5077228;28;20030;-52
2022/03/15 01:32:56;;;;;;;255.82;103.80;;;0.10;99.90;;;;;;5076221;28;20111;-52
2022/03/15 01:35:22;;;;;;;239.65;99.63;;;0.10;99.90;;;;;;5076412;28;20480;-52
2022/03/15 01:37:50;;;;;;;249.00;101.53;;;0.00;99.90;;;;;;5076488;28;20036;-52
2022/03/15 01:40:16;;;;;;;251.98;102.97;;;0.00;99.90;;;;;;5094490;28;20016;-52
2022/03/15 01:42:43;;;;;;;267.75;111.18;;;0.00;99.90;;;;;;5076186;28;20470;-52
2022/03/15 01:45:10;;;;;;;264.23;112.40;;;0.10;99.90;;;;;;5094464;28;20028;-52
2022/03/15 01:47:37;;;;;;;292.88;120.40;;;0.10;99.90;;;;;;5094307;28;20032;-52
2022/03/15 01:50:04;;;;;;;292.20;119.78;;;0.00;99.90;;;;;;5094405;28;20107;-52
2022/03/15 01:52:30;;;;;;;277.70;115.55;;;0.00;99.90;;;;;;5076314;28;20028;-52
2022/03/15 01:54:56;;;;;;;282.23;123.25;;;-0.10;99.90;;;;;;5094513;28;20028;-52
2022/03/15 01:57:23;;;;;;;273.10;118.70;;;-0.10;99.90;;;;;;5076132;28;20120;-52
2022/03/15 01:59:49;;;;;;;272.33;115.38;;;-0.20;99.90;;;;;;5075969;28;20087;-52
2022/03/15 02:02:15;;;;;;;261.13;111.50;;;-0.20;99.90;;;;;;5075947;28;20063;-52
2022/03/15 02:04:41;;;;;;;256.25;110.35;;;-0.30;99.90;;;;;;5094121;28;20461;-52
2022/03/15 02:07:10;;;;;;;298.75;117.75;;;-0.30;99.90;;;;;;5093978;28;20088;-53
2022/03/15 02:09:36;;;;;;;319.45;118.45;;;-0.20;99.90;;;;;;5072499;28;20099;-53
2022/03/15 02:12:03;;;;;;;304.55;118.60;;;-0.30;99.90;;;;;;5073592;28;20033;-52
2022/03/15 02:14:31;;;;;;;291.80;117.30;;;-0.30;99.90;;;;;;5073745;28;20420;-52
2022/03/15 02:16:57;;;;;;;268.95;108.63;;;-0.40;99.90;;;;;;5073602;28;20211;-52
2022/03/15 02:19:24;;;;;;;271.17;108.63;;;-0.40;99.90;;;;;;5073921;28;20386;-52
2022/03/15 02:21:50;;;;;;;261.73;111.00;;;-0.40;99.90;;;;;;5073598;28;20095;-52
2022/03/15 02:24:17;;;;;;;274.55;110.28;;;-0.40;99.90;;;;;;5073743;28;20044;-52
2022/03/15 02:26:43;;;;;;;282.40;109.07;;;-0.40;99.90;;;;;;5073900;28;20162;-52
2022/03/15 02:29:09;;;;;;;259.42;110.05;;;-0.50;99.90;;;;;;5073642;28;20048;-52
2022/03/15 02:31:38;;;;;;;250.88;99.97;;;-0.40;99.90;;;;;;5029233;28;1259479;-52
2022/03/15 02:34:04;;;;;;;336.40;123.80;;;-0.50;99.90;;;;;;5074533;28;20021;-52
2022/03/15 02:36:30;;;;;;;367.42;130.43;;;-0.50;99.90;;;;;;5074198;28;20033;-52
2022/03/15 02:38:56;;;;;;;428.00;146.23;;;-0.60;99.90;;;;;;5074295;28;20028;-52
2022/03/15 02:41:21;;;;;;;416.40;143.60;;;-0.60;99.90;;;;;;5074127;28;20024;-52
2022/03/15 02:43:47;;;;;;;396.45;138.55;;;-0.60;99.90;;;;;;5074183;28;20021;-52
2022/03/15 02:46:13;;;;;;;407.98;145.15;;;-0.60;99.90;;;;;;5074077;28;20070;-52
2022/03/15 02:48:39;;;;;;;400.25;137.30;;;-0.70;99.90;;;;;;5074194;28;20025;-52
2022/03/15 02:51:08;;;;;;;390.42;138.57;;;-0.70;99.90;;;;;;5074103;28;20029;-52
2022/03/15 02:53:39;;;;;;;356.65;126.53;;;-0.80;99.90;;;;;;5074191;28;20028;-52
2022/03/15 02:56:11;;;;;;;295.65;111.70;;;-0.70;99.90;;;;;;5074091;28;20033;-52
2022/03/15 02:58:40;;;;;;;253.88;99.65;;;-0.90;99.90;;;;;;5073996;28;20037;-52
2022/03/15 03:01:07;;;;;;;249.45;97.28;;;-0.90;99.90;;;;;;5074275;28;20473;-52
2022/03/15 03:03:34;;;;;;;260.65;103.68;;;-0.80;99.90;;;;;;5073852;28;20032;-52
2022/03/15 03:06:01;;;;;;;270.95;103.10;;;-0.80;99.90;;;;;;5073967;28;20043;-52
2022/03/15 03:08:27;;;;;;;338.63;122.97;;;-0.70;99.90;;;;;;5073783;28;20039;-52
2022/03/15 03:11:00;;;;;;;325.20;121.93;;;-0.70;99.90;;;;;;5073811;28;20032;-52
2022/03/15 03:13:27;;;;;;;315.63;118.22;;;-0.80;99.90;;;;;;5057839;28;20032;-52
2022/03/15 03:15:58;;;;;;;313.65;115.50;;;-0.80;99.90;;;;;;5066481;28;20024;-52
2022/03/15 03:18:25;;;;;;;;;;;-0.80;99.90;;;;;;5098682;28;20035;-52
2022/03/15 03:20:54;;;;;;;273.08;104.65;;;-0.80;99.90;;;;;;5097868;28;19912;-52
2022/03/15 03:23:20;;;;;;;276.60;106.50;;;-0.80;99.90;;;;;;5098003;28;20111;-52
2022/03/15 03:25:46;;;;;;;272.00;105.97;;;-0.80;99.90;;;;;;5097979;28;20028;-52
2022/03/15 03:28:13;;;;;;;272.10;103.63;;;-0.90;99.90;;;;;;5097898;28;20481;-52
2022/03/15 03:30:45;;;;;;;275.58;106.47;;;-0.90;99.90;;;;;;5097617;28;20078;-52
2022/03/15 03:33:11;;;;;;;274.83;106.18;;;-0.80;99.90;;;;;;5097631;28;20082;-52
2022/03/15 03:35:37;;;;;;;259.65;103.15;;;-0.90;99.90;;;;;;5097888;28;20020;-53
2022/03/15 03:38:04;;;;;;;261.92;101.90;;;-0.90;99.90;;;;;;5097705;28;20027;-52
2022/03/15 03:40:30;;;;;;;273.20;104.72;;;-0.90;99.90;;;;;;5097627;28;20029;-52
2022/03/15 03:42:56;;;;;;;242.52;94.78;;;-1.00;99.90;;;;;;5097461;28;20035;-52
2022/03/15 03:45:22;;;;;;;251.75;99.20;;;-1.00;99.90;;;;;;5097464;28;20036;-52
2022/03/15 03:47:48;;;;;;;260.75;99.93;;;-1.00;99.90;;;;;;5097453;28;20028;-52
2022/03/15 03:50:14;;;;;;;236.77;94.78;;;-1.10;99.90;;;;;;5097555;28;20103;-52
2022/03/15 03:52:40;;;;;;;206.77;85.75;;;-1.00;99.90;;;;;;5097215;28;20042;-52
2022/03/15 03:55:07;;;;;;;233.70;91.63;;;-1.00;99.90;;;;;;5097306;28;20047;-52
2022/03/15 03:57:33;;;;;;;403.10;144.95;;;-1.00;99.90;;;;;;5097245;28;20485;-52
2022/03/15 03:59:59;;;;;;;357.40;134.15;;;-0.90;99.90;;;;;;5097591;28;20024;-52
2022/03/15 04:02:26;;;;;;;350.98;130.88;;;-0.90;99.90;;;;;;5097113;28;20626;-52
2022/03/15 04:04:55;;;;;;;354.83;134.77;;;-0.90;99.90;;;;;;5097176;28;20035;-52
2022/03/15 04:07:21;;;;;;;393.38;143.27;;;-0.80;99.90;;;;;;5097020;28;20024;-52
2022/03/15 04:09:47;;;;;;;297.50;110.13;;;-0.80;99.90;;;;;;5088975;28;20269;-52
2022/03/15 04:12:16;;;;;;;214.65;86.20;;;-0.90;99.90;;;;;;5076504;28;20386;-52
2022/03/15 04:14:45;;;;;;;199.15;82.03;;;-1.00;99.90;;;;;;5076877;28;20056;-52
2022/03/15 04:17:11;;;;;;;316.67;121.47;;;-1.00;99.90;;;;;;5076552;28;20016;-52
2022/03/15 04:19:37;;;;;;;259.48;100.90;;;-1.00;99.90;;;;;;5076523;28;20025;-52
2022/03/15 04:22:03;;;;;;;268.85;105.57;;;-1.00;99.90;;;;;;5076597;28;20159;-52
2022/03/15 04:24:31;;;;;;;252.75;100.88;;;-1.00;99.90;;;;;;5075481;28;20081;-52
2022/03/15 04:26:59;;;;;;;257.08;104.38;;;-1.00;99.90;;;;;;5076411;28;20095;-52
2022/03/15 04:29:26;;;;;;;193.35;82.03;;;-1.10;99.90;;;;;;5076595;28;20052;-52
2022/03/15 04:31:52;;;;;;;192.40;81.75;;;-1.10;99.90;;;;;;5076226;28;20055;-52
2022/03/15 04:34:18;;;;;;;183.82;76.97;;;-1.10;99.90;;;;;;5076537;28;20020;-52
2022/03/15 04:36:45;;;;;;;218.30;89.80;;;-1.10;99.90;;;;;;5076484;28;20471;-52
2022/03/15 04:39:12;;;;;;;195.73;79.97;;;-1.00;99.90;;;;;;5076209;28;20082;-52
2022/03/15 04:41:39;;;;;;;206.18;83.38;;;-1.10;99.90;;;;;;5076110;28;20067;-52
2022/03/15 04:44:08;;;;;;;176.55;71.70;;;-1.10;99.90;;;;;;5076170;28;20385;-52
2022/03/15 04:46:34;;;;;;;197.70;81.53;;;-1.10;99.90;;;;;;5076099;28;20037;-52
2022/03/15 04:49:00;;;;;;;165.90;68.82;;;-1.10;99.90;;;;;;5076100;28;20119;-52
2022/03/15 04:51:27;;;;;;;143.82;61.95;;;-1.00;99.90;;;;;;5075847;28;20107;-52
2022/03/15 04:53:53;;;;;;;156.02;65.78;;;-1.10;99.90;;;;;;5075830;28;20033;-52
2022/03/15 04:56:19;;;;;;;128.00;59.83;;;-1.10;99.90;;;;;;5075846;28;20028;-52
2022/03/15 04:58:45;;;;;;;154.13;67.35;;;-1.10;99.90;;;;;;5075879;28;20029;-52
2022/03/15 05:01:11;;;;;;;176.65;74.50;;;-1.20;99.90;;;;;;5075735;28;20032;-52
2022/03/15 05:03:37;;;;;;;198.15;82.25;;;-1.30;99.90;;;;;;5075754;28;20103;-52
2022/03/15 05:06:04;;;;;;;184.73;76.80;;;-1.20;99.90;;;;;;5075944;28;20032;-53
2022/03/15 05:08:30;;;;;;;190.85;78.85;;;-1.20;99.90;;;;;;5075466;28;20040;-52
2022/03/15 05:11:08;;;;;;;193.20;79.75;;;-1.20;99.90;;;;;;5075481;28;20029;-52
2022/03/15 05:13:46;;;;;;;208.57;84.10;;;-1.10;99.90;;;;;;5075299;28;20035;-52
2022/03/15 05:16:18;;;;;;;206.98;84.97;;;-1.00;99.90;;;;;;5082382;28;20052;-52
2022/03/15 05:18:45;;;;;;;220.95;86.63;;;-1.10;99.90;;;;;;5095631;28;20027;-52
2022/03/15 05:21:17;;;;;;;243.38;91.47;;;-1.10;99.90;;;;;;5095821;28;20020;-52
2022/03/15 05:23:47;;;;;;;249.93;95.50;;;-1.10;99.90;;;;;;5095490;28;20093;-52
2022/03/15 05:26:15;;;;;;;198.20;81.25;;;-1.00;99.90;;;;;;5095648;28;20060;-53
2022/03/15 05:28:43;;;;;;;257.20;99.57;;;-0.90;99.90;;;;;;5095664;28;20039;-52
2022/03/15 05:31:11;;;;;;;179.80;75.40;;;-0.70;99.90;;;;;;5095050;28;20398;-53
2022/03/15 05:33:37;;;;;;;270.52;108.72;;;-0.30;99.90;;;;;;5095359;28;20043;-52
2022/03/15 05:36:04;;;;;;;198.55;83.07;;;0.00;99.90;;;;;;5095059;28;20103;-53
2022/03/15 05:38:30;;;;;;;225.45;88.93;;;0.10;99.90;;;;;;5095160;28;20107;-52
2022/03/15 05:40:56;;;;;;;224.00;90.25;;;0.10;99.90;;;;;;5095161;28;20122;-52
2022/03/15 05:43:22;;;;;;;262.13;98.22;;;0.40;99.90;;;;;;5095066;28;20020;-53
2022/03/15 05:45:50;;;;;;;242.75;95.82;;;0.60;99.90;;;;;;5095259;28;20038;-53
2022/03/15 05:48:17;;;;;;;262.25;100.45;;;0.60;99.90;;;;;;5095203;28;20115;-53
2022/03/15 05:50:44;;;;;;;252.77;100.32;;;0.70;99.90;;;;;;5095021;28;20431;-53
2022/03/15 05:53:10;;;;;;;259.48;105.75;;;0.70;99.90;;;;;;5094900;28;20028;-53
2022/03/15 05:55:36;;;;;;;265.60;106.50;;;0.80;99.90;;;;;;5094926;28;20021;-53
2022/03/15 05:58:03;;;;;;;259.83;100.70;;;0.90;99.90;;;;;;5095058;28;20020;-53
2022/03/15 06:00:30;;;;;;;237.20;96.43;;;1.10;99.90;;;;;;5094860;28;20020;-53
2022/03/15 06:02:56;;;;;;;232.18;93.65;;;1.20;99.90;;;;;;5094935;28;20070;-53
2022/03/15 06:05:22;;;;;;;259.63;100.82;;;1.50;99.90;;;;;;5094879;28;20035;-53
2022/03/15 06:07:51;;;;;;;246.52;101.25;;;1.70;99.90;;;;;;5094727;28;20024;-53
2022/03/15 06:10:22;;;;;;;257.80;101.47;;;1.80;99.90;;;;;;5082513;28;20386;-53
2022/03/15 06:12:48;;;;;;;254.40;105.75;;;2.00;99.90;;;;;;5074444;28;20032;-53
2022/03/15 06:15:15;;;;;;;240.30;98.88;;;2.40;99.90;;;;;;5066388;28;20025;-53
2022/03/15 06:17:49;;;;;;;234.60;99.10;;;2.60;99.90;;;;;;5067201;28;20024;-53
2022/03/15 06:20:17;;;;;;;241.95;98.88;;;2.80;99.90;;;;;;5079794;28;20016;-53
2022/03/15 06:22:48;;;;;;;215.82;93.03;;;3.10;99.90;;;;;;5064586;28;20548;-53
2022/03/15 06:25:19;;;;;;;222.52;93.78;;;3.30;99.90;;;;;;5074616;28;20555;-53
2022/03/15 06:27:47;;;;;;;217.68;93.85;;;3.40;99.90;;;;;;5069862;28;20032;-53
2022/03/15 06:30:15;;;;;;;202.70;87.85;;;3.50;99.90;;;;;;5067131;28;20355;-52
2022/03/15 06:32:44;;;;;;;171.68;79.38;;;3.60;99.90;;;;;;5061815;28;20039;-53
2022/03/15 06:35:12;;;;;;;150.43;70.85;;;3.60;99.90;;;;;;5067597;28;20070;-53
2022/03/15 06:37:45;;;;;;;161.70;69.70;;;3.70;99.90;;;;;;5064236;28;20029;-53
2022/03/15 06:40:13;;;;;;;167.63;73.13;;;3.90;99.90;;;;;;5065167;28;20028;-53
2022/03/15 06:42:41;;;;;;;170.45;71.13;;;4.00;99.90;;;;;;5064471;28;20494;-54
2022/03/15 06:45:09;;;;;;;166.88;71.07;;;4.20;99.90;;;;;;5061347;28;20028;-53
2022/03/15 06:47:36;;;;;;;151.95;68.88;;;4.40;99.90;;;;;;5063853;28;20359;-52
2022/03/15 06:50:11;;;;;;;176.20;73.93;;;4.80;99.90;;;;;;5057474;28;20505;-54
2022/03/15 06:52:39;;;;;;;149.68;68.88;;;5.00;99.90;;;;;;5068570;28;20025;-53
2022/03/15 06:55:05;;;;;;;152.10;67.15;;;5.30;99.90;;;;;;5074946;28;20028;-53
2022/03/15 06:57:35;;;;;;;146.55;63.35;;;5.50;99.90;;;;;;5072847;28;20028;-52
2022/03/15 07:00:13;;;;;;;129.98;63.70;;;5.80;99.90;;;;;;5075960;28;20023;-53
2022/03/15 07:02:40;;;;;;;152.75;68.90;;;6.10;99.90;;;;;;5073429;28;20516;-53
2022/03/15 07:05:10;;;;;;;156.75;71.10;;;6.50;99.90;;;;;;5069187;28;20489;-53
2022/03/15 07:07:37;;;;;;;161.18;70.72;;;6.70;99.90;;;;;;5075868;28;20032;-53
2022/03/15 07:10:05;;;;;;;156.45;70.63;;;6.50;99.70;;;;;;5066334;28;20029;-53
2022/03/15 07:12:32;;;;;;;171.95;78.68;;;6.50;99.90;;;;;;5067426;28;20066;-53
2022/03/15 07:15:03;;;;;;;204.65;93.97;;;6.90;99.90;;;;;;5074386;28;20024;-53
2022/03/15 07:17:30;;;;;;;222.43;95.45;;;7.10;98.90;;;;;;5070710;28;20056;-53
2022/03/15 07:20:00;;;;;;;190.07;92.10;;;7.30;99.20;;;;;;5072698;28;20036;-53
2022/03/15 07:22:29;;;;;;;199.95;90.80;;;7.30;98.00;;;;;;5074038;28;20032;-53
2022/03/15 07:24:55;;;;;;;191.68;90.13;;;7.30;98.50;;;;;;5067601;28;20035;-53
2022/03/15 07:27:22;;;;;;;201.38;90.82;;;7.50;98.20;;;;;;5065989;28;20021;-53
2022/03/15 07:29:48;;;;;;;188.35;92.20;;;8.00;97.30;;;;;;5070026;28;20737;-53
2022/03/15 07:32:14;;;;;;;167.32;82.53;;;8.40;96.70;;;;;;5072022;28;20076;-53
2022/03/15 07:34:40;;;;;;;158.40;79.60;;;8.50;94.70;;;;;;5071949;28;20028;-53
2022/03/15 07:37:06;;;;;;;183.75;86.13;;;8.60;94.50;;;;;;5075485;28;20019;-53
2022/03/15 07:39:32;;;;;;;172.57;84.15;;;9.00;95.10;;;;;;5076670;28;20032;-53
2022/03/15 07:42:00;;;;;;;175.30;81.40;;;9.00;94.10;;;;;;5072288;28;20127;-53
2022/03/15 07:44:32;;;;;;;166.50;82.80;;;9.40;94.20;;;;;;5067359;28;20102;-53
2022/03/15 07:46:58;;;;;;;153.98;76.43;;;10.00;93.20;;;;;;5064709;28;20037;-54
2022/03/15 07:49:24;;;;;;;138.93;69.43;;;10.20;91.60;;;;;;5048589;28;20029;-54
2022/03/15 07:51:50;;;;;;;138.00;68.60;;;10.20;91.60;;;;;;5066350;28;20044;-54
2022/03/15 07:54:16;;;;;;;132.10;69.90;;;10.20;91.70;;;;;;5070705;28;20044;-54
2022/03/15 07:56:44;;;;;;;143.70;71.18;;;10.40;91.30;;;;;;5069836;28;20025;-54
2022/03/15 07:59:10;;;;;;;138.40;69.57;;;10.60;91.60;;;;;;5075447;28;20031;-53
2022/03/15 08:01:36;;;;;;;148.73;72.80;;;10.70;91.60;;;;;;5071024;28;20103;-53
2022/03/15 08:04:02;;;;;;;154.27;74.38;;;10.80;90.70;;;;;;5076509;28;20028;-53
2022/03/15 08:06:29;;;;;;;145.38;75.72;;;10.90;90.60;;;;;;5074712;28;20036;-53
2022/03/15 08:08:57;;;;;;;141.90;72.35;;;11.40;85.60;;;;;;5063340;28;20024;-54
2022/03/15 08:11:24;;;;;;;149.18;77.15;;;11.70;85.10;;;;;;5063164;28;20021;-53
2022/03/15 08:13:53;;;;;;;156.57;75.82;;;12.00;78.30;;;;;;5064485;28;20083;-53
2022/03/15 08:16:23;;;;;;;154.60;77.75;;;12.50;82.60;;;;;;5068396;28;20462;-54
2022/03/15 08:18:50;;;;;;;156.52;75.07;;;12.70;77.70;;;;;;5074375;28;20047;-54
2022/03/15 08:21:17;;;;;;;142.10;70.70;;;13.00;75.00;;;;;;5062200;28;20052;-54
2022/03/15 08:23:46;;;;;;;138.30;71.95;;;13.00;70.80;;;;;;5070269;28;20036;-54
2022/03/15 08:26:14;;;;;;;146.20;69.97;;;13.10;74.00;;;;;;5070529;28;20032;-54
2022/03/15 08:28:41;;;;;;;119.65;64.75;;;13.60;69.10;;;;;;5070795;28;20083;-54
2022/03/15 08:31:08;;;;;;;149.52;66.38;;;14.10;58.30;;;;;;5076261;28;20020;-54
2022/03/15 08:33:34;;;;;;;127.65;68.38;;;14.30;55.40;;;;;;5053481;28;20037;-54
2022/03/15 08:36:00;;;;;;;128.70;67.93;;;14.20;54.60;;;;;;5083859;28;20110;-54
2022/03/15 08:38:28;;;;;;;125.45;65.45;;;14.30;53.10;;;;;;5083381;28;20036;-54
2022/03/15 08:40:56;;;;;;;116.18;64.63;;;14.50;53.80;;;;;;5083735;28;20025;-54
2022/03/15 08:43:24;;;;;;;113.72;62.25;;;14.90;50.50;;;;;;5081553;28;20120;-54
2022/03/15 08:45:50;;;;;;;105.72;55.78;;;15.30;48.20;;;;;;5082724;28;20086;-54
2022/03/15 08:48:16;;;;;;;108.57;57.53;;;15.40;44.90;;;;;;5085355;28;20462;-54
2022/03/15 08:50:42;;;;;;;100.82;55.42;;;15.80;44.50;;;;;;5080576;28;20414;-54
2022/03/15 08:53:08;;;;;;;117.18;63.83;;;16.40;42.60;;;;;;5082608;28;20478;-54
2022/03/15 08:55:35;;;;;;;124.18;65.35;;;16.70;42.80;;;;;;5084492;28;20054;-54
2022/03/15 08:58:02;;;;;;;113.45;65.78;;;16.70;43.90;;;;;;5076751;28;20027;-54
2022/03/15 09:00:28;;;;;;;147.15;76.57;;;17.40;40.70;;;;;;5073407;28;20060;-54
2022/03/15 09:02:54;;;;;;;125.50;74.75;;;16.90;41.20;;;;;;5071026;28;20027;-54
2022/03/15 09:05:20;;;;;;;135.35;76.50;;;17.40;41.70;;;;;;5071187;28;20039;-54
2022/03/15 09:07:50;;;;;;;129.48;74.85;;;17.20;41.60;;;;;;5075860;28;20375;-54
2022/03/15 09:10:20;;;;;;;124.70;73.07;;;17.40;42.00;;;;;;5061213;28;20043;-54
2022/03/15 09:12:46;;;;;;;127.20;73.22;;;17.50;40.20;;;;;;5069302;28;20017;-54
2022/03/15 09:15:13;;;;;;;119.15;71.53;;;18.10;39.80;;;;;;5081439;28;20028;-54
2022/03/15 09:17:39;;;;;;;111.90;67.85;;;18.20;38.90;;;;;;5074202;28;20109;-54
2022/03/15 09:20:06;;;;;;;114.07;67.97;;;18.40;38.00;;;;;;5064508;28;20603;-54
2022/03/15 09:22:32;;;;;;;127.50;69.35;;;17.80;36.00;;;;;;5064608;28;20612;-55
2022/03/15 09:24:58;;;;;;;109.88;63.85;;;17.90;38.40;;;;;;5063009;28;20116;-55
2022/03/15 09:27:24;;;;;;;109.68;60.05;;;17.80;38.10;;;;;;5071715;28;20222;-55
2022/03/15 09:29:50;;;;;;;98.75;55.03;;;18.30;37.40;;;;;;5062693;28;20025;-55
2022/03/15 09:32:16;;;;;;;115.93;55.58;;;18.50;35.80;;;;;;5076227;28;20059;-55
2022/03/15 09:34:43;;;;;;;95.78;52.75;;;19.20;35.70;;;;;;5079505;28;20456;-55
2022/03/15 09:37:10;;;;;;;96.97;51.80;;;18.90;34.20;;;;;;5074606;28;20020;-55
2022/03/15 09:39:36;;;;;;;90.90;49.65;;;18.70;33.70;;;;;;5075373;28;20029;-54
2022/03/15 09:42:06;;;;;;;91.18;52.40;;;18.60;34.70;;;;;;5086674;28;20042;-55
2022/03/15 09:44:35;;;;;;;90.40;47.97;;;18.80;34.70;;;;;;5085842;28;20024;-55
2022/03/15 09:47:06;;;;;;;89.85;47.08;;;18.60;33.80;;;;;;5079492;28;20028;-55
2022/03/15 09:49:33;;;;;;;83.95;46.65;;;19.00;33.30;;;;;;5059673;28;20041;-55
2022/03/15 09:52:00;;;;;;;68.78;41.65;;;19.30;33.00;;;;;;5061821;28;20493;-55
2022/03/15 09:54:29;;;;;;;77.15;43.45;;;18.80;31.80;;;;;;5067498;28;20107;-55
2022/03/15 09:56:57;;;;;;;95.90;44.33;;;19.00;32.40;;;;;;5068367;28;20021;-55
2022/03/15 09:59:27;;;;;;;67.47;39.03;;;19.30;32.80;;;;;;5073809;28;20024;-55
2022/03/15 10:01:57;;;;;;;62.60;37.70;;;19.50;30.40;;;;;;5064938;28;20058;-55
2022/03/15 10:04:24;;;;;;;74.18;38.20;;;19.00;30.30;;;;;;5066989;28;20096;-55
2022/03/15 10:06:51;;;;;;;56.03;33.45;;;19.90;30.30;;;;;;5060452;28;20079;-54
2022/03/15 10:09:18;;;;;;;63.67;36.20;;;19.40;29.40;;;;;;5078753;28;20470;-54
2022/03/15 10:11:47;;;;;;;56.25;33.63;;;19.40;28.50;;;;;;5064260;28;20028;-54
2022/03/15 10:14:17;;;;;;;83.40;37.97;;;19.90;28.80;;;;;;5088001;28;20024;-54
2022/03/15 10:16:49;;;;;;;54.70;31.05;;;20.40;29.10;;;;;;5082895;28;20474;-54
2022/03/15 10:19:19;;;;;;;49.88;30.65;;;20.10;27.60;;;;;;5088600;28;20031;-54
2022/03/15 10:21:53;;;;;;;54.15;30.98;;;20.20;27.10;;;;;;5073722;28;20035;-54
2022/03/15 10:24:28;;;;;;;63.75;31.40;;;21.00;26.80;;;;;;5086636;28;20496;-54
2022/03/15 10:26:58;;;;;;;66.57;36.40;;;21.30;25.90;;;;;;5094548;28;20020;-54
2022/03/15 10:29:29;;;;;;;56.63;32.75;;;21.60;26.40;;;;;;5083911;28;20032;-54
2022/03/15 10:32:01;;;;;;;54.40;33.03;;;21.80;25.50;;;;;;5080702;28;20048;-54
2022/03/15 10:34:29;;;;;;;39.78;22.98;;;21.30;24.70;;;;;;5083321;28;20108;-54
2022/03/15 10:37:04;;;;;;;46.28;27.88;;;21.80;23.50;;;;;;5082403;28;20060;-54
2022/03/15 10:39:34;;;;;;;57.50;28.35;;;21.80;22.70;;;;;;5065095;28;20029;-54
2022/03/15 10:42:08;;;;;;;43.13;27.17;;;22.10;23.00;;;;;;5074554;28;20048;-54
2022/03/15 10:44:46;;;;;;;70.47;40.38;;;21.70;23.40;;;;;;5086440;28;20060;-54
2022/03/15 10:47:22;;;;;;;57.17;34.70;;;22.40;24.10;;;;;;5082382;28;20055;-53
2022/03/15 10:50:04;;;;;;;45.65;27.42;;;22.10;22.60;;;;;;5081675;28;20053;-54
2022/03/15 10:52:39;;;;;;;52.90;25.15;;;22.10;21.90;;;;;;5087410;28;20044;-54
2022/03/15 10:55:26;;;;;;;46.80;27.15;;;22.20;22.90;;;;;;5058524;28;20112;-53
2022/03/15 10:58:09;;;;;;;41.80;24.08;;;21.70;23.30;;;;;;5078507;28;20482;-53
2022/03/15 11:00:39;;;;;;;36.55;21.33;;;21.80;23.00;;;;;;5080874;28;20111;-53
2022/03/15 11:03:16;;;;;;;76.65;26.67;;;21.60;22.90;;;;;;5078221;28;20078;-53
2022/03/15 11:05:50;;;;;;;45.53;24.20;;;22.60;23.50;;;;;;5059043;28;20028;-53
2022/03/15 11:08:21;;;;;;;44.45;20.27;;;23.20;23.00;;;;;;5059462;28;20033;-53
2022/03/15 11:10:52;;;;;;;36.95;18.55;;;23.60;22.50;;;;;;5063505;28;20028;-53
2022/03/15 11:13:29;;;;;;;25.90;16.98;;;23.90;21.60;;;;;;5090195;28;20040;-53
2022/03/15 11:16:06;;;;;;;34.60;17.25;;;23.60;20.50;;;;;;5070247;28;20103;-53
2022/03/15 11:18:45;;;;;;;30.83;16.55;;;23.00;20.80;;;;;;5074966;28;20021;-53
2022/03/15 11:21:13;;;;;;;34.25;17.52;;;23.30;20.60;;;;;;5088350;28;20032;-53
2022/03/15 11:23:45;;;;;;;31.73;17.63;;;23.50;21.00;;;;;;5080903;28;20239;-53
2022/03/15 11:26:17;;;;;;;31.08;15.55;;;23.30;20.50;;;;;;5089239;28;20085;-53
2022/03/15 11:28:54;;;;;;;30.77;14.98;;;24.00;19.70;;;;;;5073285;28;20086;-53
2022/03/15 11:31:23;;;;;;;30.23;17.48;;;23.50;19.20;;;;;;5078091;28;20082;-53
2022/03/15 11:33:54;;;;;;;27.05;14.60;;;23.30;19.80;;;;;;5083446;28;20071;-53
2022/03/15 11:36:26;;;;;;;23.30;13.93;;;23.10;19.80;;;;;;5087302;28;20027;-53
2022/03/15 11:38:53;;;;;;;28.48;14.82;;;23.00;19.70;;;;;;5084576;28;20066;-53
2022/03/15 11:41:26;;;;;;;35.25;16.50;;;23.20;20.00;;;;;;5086505;28;20024;-53
2022/03/15 11:44:43;;;;;;;56.55;21.20;;;23.20;20.80;;;;;;5093184;28;20489;-53
2022/03/15 11:47:30;;;;;;;40.10;17.10;;;23.70;20.50;;;;;;5006982;28;20383;-53
2022/03/15 11:50:10;;;;;;;23.42;13.75;;;23.70;20.30;;;;;;5002661;28;20029;-55
2022/03/15 11:53:11;;;;;;;24.92;15.40;;;23.80;20.30;;;;;;5009093;28;20041;-55
2022/03/15 11:55:47;;;;;;;35.22;17.98;;;24.00;20.50;;;;;;5004549;28;20093;-55
2022/03/15 11:58:29;;;;;;;40.33;18.10;;;24.30;21.10;;;;;;5007701;28;20604;-55
2022/03/15 12:01:09;;;;;;;28.25;15.82;;;24.50;21.30;;;;;;4988894;28;20125;-55
2022/03/15 12:03:47;;;;;;;29.88;15.32;;;24.50;21.50;;;;;;5003627;28;20499;-55
2022/03/15 12:06:37;;;;;;;23.52;12.88;;;24.40;21.60;;;;;;5009183;28;20040;-55
2022/03/15 12:09:12;;;;;;;24.95;12.98;;;23.90;21.80;;;;;;4995933;28;20512;-55
2022/03/15 12:11:46;;;;;;;19.27;11.88;;;23.90;22.10;;;;;;4992493;28;20046;-55
2022/03/15 12:14:27;;;;;;;39.30;14.93;;;23.90;21.60;;;;;;4992288;28;20479;-55
2022/03/15 12:17:01;;;;;;;21.92;13.52;;;24.00;21.60;;;;;;4998782;28;20038;-55
2022/03/15 12:19:47;;;;;;;22.33;12.90;;;24.30;22.10;;;;;;5004127;28;20110;-55
2022/03/15 12:22:37;;;;;;;20.40;13.43;;;24.30;21.40;;;;;;5006663;28;20037;-55
2022/03/15 12:25:18;;;;;;;23.65;13.20;;;23.90;21.80;;;;;;5066506;28;20077;-55
2022/03/15 12:27:50;;;;;;;28.30;15.80;;;23.90;22.30;;;;;;5085681;28;20115;-55
2022/03/15 12:30:29;;;;;;;18.77;11.52;;;23.50;22.30;;;;;;5079875;28;20077;-55